createdAt,value
2019-03-16T00:00:10.620Z,6.87
2019-03-16T00:01:12.865Z,6.89
2019-03-16T00:02:10.560Z,6.93
2019-03-16T00:03:10.603Z,6.89
2019-03-16T00:04:10.487Z,6.85
2019-03-16T00:05:10.455Z,6.93
2019-03-16T00:06:11.412Z,6.88
2019-03-16T00:07:10.393Z,6.81
2019-03-16T00:08:10.354Z,6.82
2019-03-16T00:09:10.448Z,6.77
2019-03-16T00:10:10.914Z,6.88
2019-03-16T00:11:10.815Z,6.78
2019-03-16T00:12:10.223Z,6.92
2019-03-16T00:13:10.928Z,6.79
2019-03-16T00:14:10.183Z,6.79
2019-03-16T00:15:10.120Z,6.79
2019-03-16T00:16:10.085Z,6.64
2019-03-16T00:17:10.054Z,6.66
2019-03-16T00:18:10.022Z,6.70
2019-03-16T00:19:10.025Z,6.81
2019-03-16T00:20:09.957Z,6.82
2019-03-16T00:21:09.936Z,6.70
2019-03-16T00:22:09.894Z,6.77
2019-03-16T00:23:10.413Z,6.79
2019-03-16T00:24:09.848Z,6.63
2019-03-16T00:25:09.794Z,6.64
2019-03-16T00:26:09.770Z,6.63
2019-03-16T00:27:09.721Z,6.57
2019-03-16T00:28:09.693Z,6.62
2019-03-16T00:29:09.686Z,6.64
2019-03-16T00:30:10.419Z,6.66
2019-03-16T00:31:09.592Z,6.69
2019-03-16T00:32:13.763Z,6.77
2019-03-16T00:33:10.424Z,6.74
2019-03-16T00:34:10.539Z,6.62
2019-03-16T00:35:10.459Z,6.62
2019-03-16T00:36:10.412Z,6.64
2019-03-16T00:37:09.392Z,6.66
2019-03-16T00:38:09.360Z,6.56
2019-03-16T00:39:09.347Z,6.63
2019-03-16T00:40:09.288Z,6.62
2019-03-16T00:41:09.923Z,6.64
2019-03-16T00:42:09.922Z,6.60
2019-03-16T00:43:09.188Z,6.62
2019-03-16T00:44:09.180Z,6.63
2019-03-16T00:45:09.123Z,6.64
2019-03-16T00:46:09.087Z,6.62
2019-03-16T00:47:09.054Z,6.64
2019-03-16T00:48:09.021Z,6.60
2019-03-16T00:49:09.012Z,6.64
2019-03-16T00:50:08.952Z,6.60
2019-03-16T00:51:08.920Z,6.62
2019-03-16T00:52:08.887Z,6.57
2019-03-16T00:53:08.852Z,6.56
2019-03-16T00:54:08.847Z,6.63
2019-03-16T00:55:08.794Z,6.56
2019-03-16T00:56:08.753Z,6.64
2019-03-16T00:57:08.726Z,6.60
2019-03-16T00:58:08.685Z,6.66
2019-03-16T00:59:08.690Z,6.63
2019-03-16T01:00:08.619Z,6.62
2019-03-16T01:01:08.587Z,6.64
2019-03-16T01:02:09.421Z,6.56
2019-03-16T01:03:08.522Z,6.63
2019-03-16T01:04:08.512Z,6.66
2019-03-16T01:05:08.457Z,6.48
2019-03-16T01:06:08.918Z,6.62
2019-03-16T01:07:08.380Z,6.62
2019-03-16T01:08:08.930Z,6.62
2019-03-16T01:09:08.351Z,6.63
2019-03-16T01:10:08.914Z,6.70
2019-03-16T01:11:08.252Z,6.72
2019-03-16T01:12:08.997Z,6.72
2019-03-16T01:13:08.197Z,6.74
2019-03-16T01:14:08.154Z,6.82
2019-03-16T01:15:08.471Z,6.75
2019-03-16T01:16:08.921Z,6.81
2019-03-16T01:17:08.062Z,6.81
2019-03-16T01:18:08.024Z,6.77
2019-03-16T01:19:07.979Z,6.87
2019-03-16T01:20:07.972Z,6.78
2019-03-16T01:21:08.417Z,6.66
2019-03-16T01:22:07.882Z,6.81
2019-03-16T01:23:07.851Z,6.84
2019-03-16T01:24:07.818Z,6.81
2019-03-16T01:25:07.954Z,6.87
2019-03-16T01:26:07.755Z,6.87
2019-03-16T01:27:08.420Z,6.79
2019-03-16T01:28:07.679Z,6.81
2019-03-16T01:29:07.651Z,6.77
2019-03-16T01:30:07.649Z,6.72
2019-03-16T01:31:07.587Z,6.79
2019-03-16T01:32:07.558Z,6.77
2019-03-16T01:33:07.517Z,6.77
2019-03-16T01:34:07.481Z,6.81
2019-03-16T01:35:07.976Z,6.70
2019-03-16T01:36:07.934Z,6.69
2019-03-16T01:37:07.921Z,6.69
2019-03-16T01:38:07.350Z,6.59
2019-03-16T01:39:07.356Z,6.60
2019-03-16T01:40:07.313Z,6.62
2019-03-16T01:41:07.264Z,6.66
2019-03-16T01:42:07.228Z,6.64
2019-03-16T01:43:07.207Z,6.66
2019-03-16T01:44:07.151Z,6.64
2019-03-16T01:45:07.240Z,6.57
2019-03-16T01:46:07.092Z,6.64
2019-03-16T01:47:07.047Z,6.63
2019-03-16T01:48:07.016Z,6.64
2019-03-16T01:49:07.003Z,6.57
2019-03-16T01:50:07.025Z,6.67
2019-03-16T01:51:06.921Z,6.64
2019-03-16T01:52:07.420Z,6.72
2019-03-16T01:53:06.855Z,6.67
2019-03-16T01:54:06.818Z,6.60
2019-03-16T01:55:06.807Z,6.63
2019-03-16T01:56:06.752Z,6.60
2019-03-16T01:57:06.717Z,6.62
2019-03-16T01:58:06.696Z,6.60
2019-03-16T01:59:06.647Z,6.64
2019-03-16T02:00:06.636Z,6.57
2019-03-16T02:01:06.585Z,6.60
2019-03-16T02:02:06.579Z,6.59
2019-03-16T02:03:06.528Z,6.62
2019-03-16T02:04:06.492Z,6.62
2019-03-16T02:05:06.478Z,6.46
2019-03-16T02:06:06.417Z,6.48
2019-03-16T02:07:06.380Z,6.62
2019-03-16T02:08:06.351Z,6.67
2019-03-16T02:09:06.319Z,6.57
2019-03-16T02:10:06.461Z,6.51
2019-03-16T02:11:06.245Z,6.45
2019-03-16T02:12:06.213Z,6.49
2019-03-16T02:13:06.924Z,6.59
2019-03-16T02:14:06.148Z,6.49
2019-03-16T02:15:06.138Z,6.48
2019-03-16T02:16:11.318Z,6.51
2019-03-16T02:17:06.053Z,6.51
2019-03-16T02:18:06.046Z,6.54
2019-03-16T02:19:06.922Z,6.52
2019-03-16T02:20:05.980Z,6.51
2019-03-16T02:21:06.424Z,6.51
2019-03-16T02:22:06.427Z,6.39
2019-03-16T02:23:05.885Z,6.39
2019-03-16T02:24:05.813Z,6.44
2019-03-16T02:25:05.836Z,6.44
2019-03-16T02:26:05.754Z,6.44
2019-03-16T02:27:05.717Z,6.41
2019-03-16T02:28:06.444Z,6.36
2019-03-16T02:29:05.660Z,6.30
2019-03-16T02:30:05.652Z,6.39
2019-03-16T02:31:06.464Z,6.41
2019-03-16T02:32:06.433Z,6.28
2019-03-16T02:33:13.340Z,6.27
2019-03-16T02:34:05.483Z,6.31
2019-03-16T02:35:05.460Z,6.27
2019-03-16T02:36:05.453Z,6.28
2019-03-16T02:37:05.408Z,6.28
2019-03-16T02:38:05.378Z,6.28
2019-03-16T02:39:05.928Z,6.33
2019-03-16T02:40:05.929Z,6.26
2019-03-16T02:41:05.430Z,6.31
2019-03-16T02:42:05.222Z,6.28
2019-03-16T02:43:05.199Z,6.30
2019-03-16T02:44:05.156Z,6.33
2019-03-16T02:45:05.125Z,6.31
2019-03-16T02:46:05.106Z,6.38
2019-03-16T02:47:05.939Z,6.39
2019-03-16T02:48:05.933Z,6.30
2019-03-16T02:49:05.928Z,6.31
2019-03-16T02:50:05.929Z,6.30
2019-03-16T02:51:05.886Z,6.31
2019-03-16T02:52:04.908Z,6.30
2019-03-16T02:53:04.859Z,6.31
2019-03-16T02:54:05.450Z,6.24
2019-03-16T02:55:04.778Z,6.27
2019-03-16T02:56:05.345Z,6.26
2019-03-16T02:57:04.710Z,6.28
2019-03-16T02:58:05.336Z,6.31
2019-03-16T02:59:04.638Z,6.28
2019-03-16T03:00:04.619Z,6.16
2019-03-16T03:01:04.593Z,6.19
2019-03-16T03:02:04.563Z,6.27
2019-03-16T03:03:04.511Z,6.22
2019-03-16T03:04:04.472Z,6.19
2019-03-16T03:05:04.436Z,6.16
2019-03-16T03:06:04.513Z,6.19
2019-03-16T03:07:04.368Z,6.22
2019-03-16T03:08:04.362Z,6.19
2019-03-16T03:09:04.304Z,6.14
2019-03-16T03:10:04.272Z,6.09
2019-03-16T03:11:04.258Z,6.17
2019-03-16T03:12:04.197Z,6.24
2019-03-16T03:13:04.178Z,6.30
2019-03-16T03:14:04.135Z,6.16
2019-03-16T03:15:04.100Z,6.16
2019-03-16T03:16:04.096Z,6.14
2019-03-16T03:17:04.031Z,6.14
2019-03-16T03:18:04.001Z,6.08
2019-03-16T03:19:03.984Z,6.01
2019-03-16T03:20:03.934Z,6.27
2019-03-16T03:21:03.949Z,6.14
2019-03-16T03:22:03.870Z,6.14
2019-03-16T03:23:03.834Z,6.07
2019-03-16T03:24:03.801Z,6.02
2019-03-16T03:25:03.766Z,6.02
2019-03-16T03:26:03.779Z,5.97
2019-03-16T03:27:03.695Z,6.09
2019-03-16T03:28:03.683Z,6.09
2019-03-16T03:29:03.659Z,6.07
2019-03-16T03:30:04.439Z,6.09
2019-03-16T03:31:03.656Z,6.11
2019-03-16T03:32:03.546Z,6.12
2019-03-16T03:33:04.434Z,6.14
2019-03-16T03:34:03.535Z,6.19
2019-03-16T03:35:03.506Z,6.12
2019-03-16T03:36:03.475Z,6.26
2019-03-16T03:37:03.358Z,6.12
2019-03-16T03:38:03.938Z,6.12
2019-03-16T03:39:03.321Z,6.11
2019-03-16T03:40:05.340Z,6.02
2019-03-16T03:41:03.323Z,6.11
2019-03-16T03:42:03.208Z,6.05
2019-03-16T03:43:03.219Z,5.98
2019-03-16T03:44:03.126Z,6.05
2019-03-16T03:45:03.944Z,6.07
2019-03-16T03:46:03.071Z,6.11
2019-03-16T03:47:03.078Z,6.01
2019-03-16T03:48:03.043Z,6.14
2019-03-16T03:49:02.953Z,6.04
2019-03-16T03:50:03.437Z,6.04
2019-03-16T03:51:02.893Z,6.08
2019-03-16T03:52:02.850Z,6.04
2019-03-16T03:53:02.992Z,5.98
2019-03-16T03:54:02.786Z,6.08
2019-03-16T03:55:02.748Z,6.07
2019-03-16T03:56:03.437Z,6.07
2019-03-16T03:57:03.435Z,6.22
2019-03-16T03:58:02.969Z,6.17
2019-03-16T03:59:05.445Z,6.16
2019-03-16T04:00:02.594Z,6.11
2019-03-16T04:01:02.549Z,6.09
2019-03-16T04:02:02.544Z,6.12
2019-03-16T04:03:02.541Z,6.04
2019-03-16T04:04:15.326Z,6.09
2019-03-16T04:05:02.417Z,6.02
2019-03-16T04:06:02.942Z,6.12
2019-03-16T04:07:02.372Z,6.08
2019-03-16T04:08:02.321Z,6.01
2019-03-16T04:09:02.279Z,5.99
2019-03-16T04:10:02.299Z,6.02
2019-03-16T04:11:02.223Z,6.04
2019-03-16T04:12:02.476Z,5.97
2019-03-16T04:13:02.155Z,6.01
2019-03-16T04:14:02.949Z,5.90
2019-03-16T04:15:02.076Z,6.01
2019-03-16T04:16:02.943Z,6.01
2019-03-16T04:17:02.060Z,6.09
2019-03-16T04:18:01.979Z,5.98
2019-03-16T04:19:02.442Z,6.02
2019-03-16T04:20:02.439Z,6.05
2019-03-16T04:21:02.437Z,6.11
2019-03-16T04:22:01.883Z,6.07
2019-03-16T04:23:02.344Z,6.04
2019-03-16T04:24:02.439Z,6.11
2019-03-16T04:25:02.443Z,6.16
2019-03-16T04:26:02.446Z,6.07
2019-03-16T04:27:15.124Z,6.16
2019-03-16T04:28:02.446Z,6.11
2019-03-16T04:29:02.454Z,6.11
2019-03-16T04:30:01.599Z,6.14
2019-03-16T04:31:01.539Z,6.12
2019-03-16T04:32:01.534Z,6.12
2019-03-16T04:33:01.475Z,6.11
2019-03-16T04:34:01.439Z,6.14
2019-03-16T04:35:01.410Z,6.17
2019-03-16T04:36:01.368Z,6.11
2019-03-16T04:37:01.370Z,5.99
2019-03-16T04:38:01.340Z,6.14
2019-03-16T04:39:01.271Z,6.11
2019-03-16T04:40:01.234Z,6.12
2019-03-16T04:41:01.201Z,6.09
2019-03-16T04:42:01.481Z,6.09
2019-03-16T04:43:01.139Z,6.05
2019-03-16T04:44:01.115Z,6.11
2019-03-16T04:45:01.943Z,6.09
2019-03-16T04:46:01.944Z,6.09
2019-03-16T04:47:01.494Z,6.11
2019-03-16T04:48:00.968Z,6.07
2019-03-16T04:49:00.929Z,5.98
2019-03-16T04:50:00.896Z,6.07
2019-03-16T04:51:00.865Z,6.09
2019-03-16T04:52:00.855Z,6.09
2019-03-16T04:53:00.796Z,6.11
2019-03-16T04:54:00.775Z,6.11
2019-03-16T04:55:00.728Z,6.09
2019-03-16T04:56:00.697Z,6.09
2019-03-16T04:57:00.686Z,5.97
2019-03-16T04:58:00.631Z,6.08
2019-03-16T04:59:00.603Z,6.12
2019-03-16T05:00:01.550Z,6.14
2019-03-16T05:01:00.530Z,6.22
2019-03-16T05:02:00.495Z,6.11
2019-03-16T05:03:00.985Z,6.20
2019-03-16T05:04:00.427Z,6.14
2019-03-16T05:05:00.535Z,6.12
2019-03-16T05:06:00.945Z,6.14
2019-03-16T05:07:00.472Z,6.12
2019-03-16T05:08:00.491Z,6.14
2019-03-16T05:09:00.944Z,6.27
2019-03-16T05:10:00.276Z,6.30
2019-03-16T05:11:00.200Z,6.24
2019-03-16T05:12:00.168Z,6.17
2019-03-16T05:13:00.159Z,6.22
2019-03-16T05:14:00.093Z,6.22
2019-03-16T05:15:00.076Z,6.17
2019-03-16T05:16:00.943Z,6.17
2019-03-16T05:17:00.941Z,6.19
2019-03-16T05:17:59.986Z,6.19
2019-03-16T05:18:59.934Z,6.30
2019-03-16T05:19:59.915Z,6.19
2019-03-16T05:20:59.865Z,6.27
2019-03-16T05:22:00.442Z,6.20
2019-03-16T05:22:59.820Z,6.26
2019-03-16T05:24:02.766Z,6.30
2019-03-16T05:24:59.726Z,6.20
2019-03-16T05:25:59.689Z,6.24
2019-03-16T05:26:59.659Z,6.26
2019-03-16T05:27:59.650Z,6.28
2019-03-16T05:29:00.451Z,6.26
2019-03-16T05:30:00.453Z,6.24
2019-03-16T05:31:00.446Z,6.31
2019-03-16T05:31:59.502Z,6.28
2019-03-16T05:32:59.481Z,6.26
2019-03-16T05:33:59.426Z,6.28
2019-03-16T05:34:59.394Z,6.24
2019-03-16T05:35:59.356Z,6.30
2019-03-16T05:36:59.331Z,6.38
2019-03-16T05:37:59.485Z,6.28
2019-03-16T05:38:59.955Z,6.39
2019-03-16T05:39:59.947Z,6.39
2019-03-16T05:40:59.195Z,6.39
2019-03-16T05:41:59.233Z,6.46
2019-03-16T05:42:59.177Z,6.48
2019-03-16T05:43:59.147Z,6.39
2019-03-16T05:44:59.951Z,6.39
2019-03-16T05:45:59.946Z,6.44
2019-03-16T05:46:59.950Z,6.45
2019-03-16T05:47:58.985Z,6.52
2019-03-16T05:48:58.931Z,6.51
2019-03-16T05:49:59.565Z,6.49
2019-03-16T05:50:59.516Z,6.39
2019-03-16T05:51:59.453Z,6.56
2019-03-16T05:52:58.815Z,6.46
2019-03-16T05:53:58.760Z,6.52
2019-03-16T05:54:58.725Z,6.56
2019-03-16T05:55:58.722Z,6.49
2019-03-16T05:56:58.673Z,6.66
2019-03-16T05:57:58.991Z,6.51
2019-03-16T05:58:58.650Z,6.59
2019-03-16T05:59:58.579Z,6.67
2019-03-16T06:00:58.536Z,6.62
2019-03-16T06:01:59.455Z,6.74
2019-03-16T06:02:58.588Z,6.66
2019-03-16T06:03:59.361Z,6.77
2019-03-16T06:05:09.777Z,6.75
2019-03-16T06:05:58.367Z,6.78
2019-03-16T06:07:00.358Z,6.84
2019-03-16T06:07:58.325Z,6.96
2019-03-16T06:08:58.272Z,6.84
2019-03-16T06:09:59.105Z,6.88
2019-03-16T06:10:58.215Z,7.00
2019-03-16T06:12:07.478Z,7.10
2019-03-16T06:12:58.172Z,7.06
2019-03-16T06:13:58.138Z,6.96
2019-03-16T06:14:58.106Z,7.05
2019-03-16T06:15:58.064Z,7.07
2019-03-16T06:16:58.027Z,7.05
2019-03-16T06:17:58.003Z,7.07
2019-03-16T06:18:57.978Z,7.17
2019-03-16T06:19:57.904Z,7.10
2019-03-16T06:20:57.871Z,7.11
2019-03-16T06:21:57.834Z,7.13
2019-03-16T06:22:57.801Z,7.15
2019-03-16T06:23:57.794Z,7.29
2019-03-16T06:24:57.737Z,7.20
2019-03-16T06:25:57.708Z,7.17
2019-03-16T06:26:57.670Z,7.31
2019-03-16T06:27:57.643Z,7.29
2019-03-16T06:28:58.075Z,7.25
2019-03-16T06:29:57.575Z,7.28
2019-03-16T06:30:58.487Z,7.23
2019-03-16T06:31:58.490Z,7.35
2019-03-16T06:32:57.481Z,7.39
2019-03-16T06:33:57.600Z,7.42
2019-03-16T06:34:57.413Z,7.36
2019-03-16T06:35:57.380Z,7.39
2019-03-16T06:36:57.350Z,7.47
2019-03-16T06:37:57.321Z,7.53
2019-03-16T06:38:57.322Z,7.63
2019-03-16T06:39:58.009Z,7.63
2019-03-16T06:40:57.224Z,7.61
2019-03-16T06:41:57.191Z,7.76
2019-03-16T06:42:57.156Z,7.73
2019-03-16T06:43:57.148Z,7.75
2019-03-16T06:44:57.096Z,7.70
2019-03-16T06:45:57.066Z,7.73
2019-03-16T06:46:57.046Z,7.75
2019-03-16T06:47:56.997Z,7.77
2019-03-16T06:48:56.994Z,7.77
2019-03-16T06:49:56.937Z,7.97
2019-03-16T06:50:56.896Z,8.05
2019-03-16T06:51:56.871Z,8.01
2019-03-16T06:52:56.902Z,7.94
2019-03-16T06:53:56.826Z,7.95
2019-03-16T06:54:56.771Z,8.05
2019-03-16T06:55:56.747Z,8.08
2019-03-16T06:56:56.749Z,7.94
2019-03-16T06:57:56.680Z,8.03
2019-03-16T06:58:58.405Z,8.01
2019-03-16T06:59:56.614Z,8.08
2019-03-16T07:00:56.584Z,8.03
2019-03-16T07:01:56.548Z,8.03
2019-03-16T07:02:58.399Z,8.03
2019-03-16T07:03:56.512Z,7.95
2019-03-16T07:04:56.469Z,8.06
2019-03-16T07:05:56.985Z,8.05
2019-03-16T07:06:56.390Z,7.94
2019-03-16T07:07:56.367Z,8.00
2019-03-16T07:08:56.542Z,8.08
2019-03-16T07:09:56.303Z,8.10
2019-03-16T07:10:56.266Z,7.95
2019-03-16T07:11:56.235Z,7.97
2019-03-16T07:12:56.213Z,8.00
2019-03-16T07:13:56.194Z,8.23
2019-03-16T07:14:56.139Z,8.05
2019-03-16T07:15:56.109Z,8.15
2019-03-16T07:17:02.143Z,8.20
2019-03-16T07:17:56.053Z,8.13
2019-03-16T07:18:59.098Z,8.18
2019-03-16T07:19:55.985Z,8.34
2019-03-16T07:20:55.966Z,8.27
2019-03-16T07:21:55.968Z,8.24
2019-03-16T07:22:55.894Z,8.33
2019-03-16T07:23:55.859Z,8.30
2019-03-16T07:24:55.856Z,8.24
2019-03-16T07:25:55.800Z,8.19
2019-03-16T07:26:55.769Z,8.30
2019-03-16T07:27:55.732Z,8.45
2019-03-16T07:28:55.703Z,8.49
2019-03-16T07:29:55.850Z,8.48
2019-03-16T07:30:55.639Z,8.45
2019-03-16T07:31:55.652Z,8.42
2019-03-16T07:32:55.581Z,8.48
2019-03-16T07:33:55.546Z,8.53
2019-03-16T07:34:55.542Z,8.49
2019-03-16T07:35:55.485Z,8.46
2019-03-16T07:36:55.472Z,8.53
2019-03-16T07:37:55.988Z,8.58
2019-03-16T07:38:55.396Z,8.56
2019-03-16T07:39:55.386Z,8.52
2019-03-16T07:40:55.326Z,8.48
2019-03-16T07:41:55.298Z,8.60
2019-03-16T07:42:55.325Z,8.63
2019-03-16T07:43:55.235Z,8.74
2019-03-16T07:45:07.613Z,8.67
2019-03-16T07:45:55.176Z,8.66
2019-03-16T07:46:55.146Z,8.64
2019-03-16T07:47:55.124Z,8.70
2019-03-16T07:48:55.087Z,8.84
2019-03-16T07:49:55.079Z,8.89
2019-03-16T07:50:55.025Z,8.89
2019-03-16T07:51:54.996Z,8.89
2019-03-16T07:52:54.970Z,8.73
2019-03-16T07:53:54.937Z,8.74
2019-03-16T07:54:54.929Z,8.66
2019-03-16T07:55:55.542Z,8.71
2019-03-16T07:56:54.850Z,8.66
2019-03-16T07:57:54.811Z,8.64
2019-03-16T07:58:54.781Z,8.70
2019-03-16T07:59:54.776Z,8.67
2019-03-16T08:00:54.726Z,8.71
2019-03-16T08:01:54.738Z,8.76
2019-03-16T08:02:54.661Z,8.91
2019-03-16T08:03:55.495Z,8.94
2019-03-16T08:04:54.624Z,9.10
2019-03-16T08:05:55.506Z,9.19
2019-03-16T08:06:54.538Z,9.29
2019-03-16T08:07:55.002Z,9.34
2019-03-16T08:08:54.523Z,9.25
2019-03-16T08:09:54.469Z,9.32
2019-03-16T08:10:54.407Z,9.25
2019-03-16T08:11:54.384Z,9.21
2019-03-16T08:12:54.350Z,9.21
2019-03-16T08:13:54.389Z,9.13
2019-03-16T08:14:54.313Z,9.21
2019-03-16T08:15:54.261Z,9.18
2019-03-16T08:16:54.229Z,9.16
2019-03-16T08:17:54.254Z,9.11
2019-03-16T08:18:54.164Z,9.14
2019-03-16T08:19:54.164Z,9.32
2019-03-16T08:20:54.106Z,9.29
2019-03-16T08:21:54.114Z,9.29
2019-03-16T08:22:54.168Z,9.14
2019-03-16T08:23:54.026Z,9.22
2019-03-16T08:24:54.008Z,9.28
2019-03-16T08:25:53.955Z,9.29
2019-03-16T08:26:53.923Z,9.31
2019-03-16T08:27:54.791Z,9.44
2019-03-16T08:28:53.862Z,9.55
2019-03-16T08:29:53.864Z,9.55
2019-03-16T08:30:56.792Z,9.66
2019-03-16T08:31:53.777Z,9.64
2019-03-16T08:32:53.743Z,9.55
2019-03-16T08:33:53.718Z,9.54
2019-03-16T08:34:53.708Z,9.61
2019-03-16T08:35:53.661Z,9.65
2019-03-16T08:36:53.626Z,9.69
2019-03-16T08:37:54.410Z,9.74
2019-03-16T08:38:53.568Z,9.64
2019-03-16T08:39:53.534Z,9.68
2019-03-16T08:40:53.537Z,9.76
2019-03-16T08:41:53.478Z,9.94
2019-03-16T08:42:54.091Z,9.99
2019-03-16T08:43:53.414Z,9.97
2019-03-16T08:44:53.388Z,10.13
2019-03-16T08:45:53.382Z,10.17
2019-03-16T08:46:53.327Z,9.99
2019-03-16T08:47:53.298Z,9.76
2019-03-16T08:48:53.287Z,9.73
2019-03-16T08:49:54.019Z,9.83
2019-03-16T08:50:53.235Z,9.83
2019-03-16T08:51:53.177Z,9.76
2019-03-16T08:52:54.063Z,9.89
2019-03-16T08:53:53.183Z,9.97
2019-03-16T08:54:53.091Z,10.05
2019-03-16T08:55:53.088Z,10.07
2019-03-16T08:56:53.036Z,9.97
2019-03-16T08:58:05.403Z,10.02
2019-03-16T08:58:53.604Z,10.22
2019-03-16T08:59:52.981Z,10.20
2019-03-16T09:00:52.939Z,10.25
2019-03-16T09:01:52.883Z,10.30
2019-03-16T09:02:52.856Z,10.16
2019-03-16T09:03:52.829Z,10.09
2019-03-16T09:04:52.794Z,10.04
2019-03-16T09:05:52.795Z,9.98
2019-03-16T09:06:53.030Z,10.02
2019-03-16T09:07:52.714Z,10.22
2019-03-16T09:08:52.680Z,10.10
2019-03-16T09:09:52.653Z,10.17
2019-03-16T09:10:52.654Z,10.13
2019-03-16T09:11:52.592Z,10.22
2019-03-16T09:12:55.267Z,10.30
2019-03-16T09:13:52.600Z,10.19
2019-03-16T09:14:52.506Z,10.28
2019-03-16T09:15:52.514Z,10.17
2019-03-16T09:16:52.451Z,10.23
2019-03-16T09:17:52.423Z,10.15
2019-03-16T09:18:52.441Z,10.12
2019-03-16T09:19:52.361Z,10.09
2019-03-16T09:20:52.549Z,10.10
2019-03-16T09:21:52.303Z,10.20
2019-03-16T09:22:52.279Z,10.40
2019-03-16T09:23:52.241Z,10.46
2019-03-16T09:24:52.218Z,10.46
2019-03-16T09:25:52.235Z,10.57
2019-03-16T09:26:52.156Z,10.34
2019-03-16T09:27:52.131Z,10.37
2019-03-16T09:29:00.004Z,10.46
2019-03-16T09:29:52.075Z,10.26
2019-03-16T09:30:52.135Z,10.09
2019-03-16T09:31:52.020Z,10.01
2019-03-16T09:32:51.984Z,10.13
2019-03-16T09:33:51.971Z,10.25
2019-03-16T09:34:51.953Z,10.44
2019-03-16T09:35:51.934Z,10.28
2019-03-16T09:36:51.928Z,10.17
2019-03-16T09:37:51.849Z,10.13
2019-03-16T09:38:51.810Z,10.28
2019-03-16T09:39:51.780Z,10.31
2019-03-16T09:40:51.784Z,10.49
2019-03-16T09:41:51.725Z,10.49
2019-03-16T09:42:51.698Z,10.46
2019-03-16T09:43:51.667Z,10.44
2019-03-16T09:44:51.638Z,10.35
2019-03-16T09:45:51.658Z,10.40
2019-03-16T09:46:52.529Z,10.31
2019-03-16T09:47:51.558Z,10.28
2019-03-16T09:48:51.527Z,10.26
2019-03-16T09:49:51.492Z,10.53
2019-03-16T09:50:51.490Z,10.53
2019-03-16T09:51:51.434Z,10.49
2019-03-16T09:52:51.407Z,10.35
2019-03-16T09:53:51.381Z,10.35
2019-03-16T09:54:51.349Z,10.35
2019-03-16T09:55:51.321Z,10.35
2019-03-16T09:57:00.582Z,10.49
2019-03-16T09:57:51.259Z,10.64
2019-03-16T09:58:51.230Z,10.94
2019-03-16T09:59:51.217Z,10.82
2019-03-16T10:00:51.177Z,10.64
2019-03-16T10:01:51.182Z,10.71
2019-03-16T10:02:52.043Z,10.76
2019-03-16T10:03:51.091Z,10.68
2019-03-16T10:04:51.059Z,10.68
2019-03-16T10:05:51.033Z,10.71
2019-03-16T10:06:51.032Z,10.75
2019-03-16T10:07:51.520Z,10.94
2019-03-16T10:08:50.945Z,10.99
2019-03-16T10:09:50.916Z,10.86
2019-03-16T10:10:50.890Z,10.92
2019-03-16T10:11:50.886Z,10.79
2019-03-16T10:12:50.830Z,10.71
2019-03-16T10:13:50.893Z,10.61
2019-03-16T10:14:50.827Z,10.67
2019-03-16T10:15:50.742Z,10.67
2019-03-16T10:16:50.749Z,10.78
2019-03-16T10:17:50.686Z,10.74
2019-03-16T10:18:50.676Z,10.67
2019-03-16T10:19:50.628Z,10.61
2019-03-16T10:20:50.613Z,10.76
2019-03-16T10:21:50.604Z,10.97
2019-03-16T10:22:50.544Z,11.07
2019-03-16T10:23:50.521Z,11.12
2019-03-16T10:24:50.484Z,11.23
2019-03-16T10:25:50.476Z,11.26
2019-03-16T10:26:50.476Z,11.04
2019-03-16T10:27:50.408Z,11.00
2019-03-16T10:28:50.379Z,10.94
2019-03-16T10:29:51.028Z,10.93
2019-03-16T10:30:50.320Z,10.92
2019-03-16T10:31:50.322Z,10.87
2019-03-16T10:32:50.258Z,10.74
2019-03-16T10:33:50.234Z,10.75
2019-03-16T10:34:50.211Z,10.84
2019-03-16T10:35:50.189Z,10.74
2019-03-16T10:36:50.180Z,10.69
2019-03-16T10:37:50.131Z,10.68
2019-03-16T10:38:50.093Z,10.82
2019-03-16T10:39:50.068Z,10.76
2019-03-16T10:40:50.035Z,10.76
2019-03-16T10:41:50.010Z,10.61
2019-03-16T10:42:50.000Z,10.49
2019-03-16T10:43:49.949Z,10.28
2019-03-16T10:44:49.929Z,10.38
2019-03-16T10:45:49.893Z,10.53
2019-03-16T10:46:49.865Z,10.53
2019-03-16T10:47:49.927Z,10.56
2019-03-16T10:48:49.806Z,10.48
2019-03-16T10:49:49.774Z,10.35
2019-03-16T10:50:50.567Z,10.34
2019-03-16T10:51:49.716Z,10.23
2019-03-16T10:52:49.715Z,10.13
2019-03-16T10:53:49.665Z,9.95
2019-03-16T10:54:49.634Z,9.98
2019-03-16T10:55:49.613Z,9.97
2019-03-16T10:56:50.532Z,10.01
2019-03-16T10:57:49.570Z,9.99
2019-03-16T10:58:56.611Z,10.10
2019-03-16T10:59:49.490Z,10.07
2019-03-16T11:00:49.463Z,10.15
2019-03-16T11:01:49.432Z,10.16
2019-03-16T11:02:49.443Z,10.12
2019-03-16T11:03:49.378Z,10.05
2019-03-16T11:04:49.346Z,10.02
2019-03-16T11:05:49.317Z,9.95
2019-03-16T11:06:49.290Z,9.62
2019-03-16T11:07:49.320Z,9.48
2019-03-16T11:08:49.225Z,9.43
2019-03-16T11:09:49.197Z,9.23
2019-03-16T11:10:49.175Z,9.23
2019-03-16T11:11:49.139Z,9.25
2019-03-16T11:12:49.130Z,9.34
2019-03-16T11:13:49.080Z,9.25
2019-03-16T11:14:49.050Z,9.32
2019-03-16T11:15:49.016Z,9.25
2019-03-16T11:16:48.988Z,9.25
2019-03-16T11:17:49.016Z,9.29
2019-03-16T11:18:48.933Z,9.40
2019-03-16T11:19:48.901Z,9.23
2019-03-16T11:20:48.874Z,9.31
2019-03-16T11:21:50.707Z,9.36
2019-03-16T11:22:48.835Z,9.29
2019-03-16T11:23:48.781Z,9.32
2019-03-16T11:24:48.761Z,9.40
2019-03-16T11:25:48.725Z,9.25
2019-03-16T11:26:48.693Z,9.16
2019-03-16T11:27:48.715Z,9.26
2019-03-16T11:28:48.642Z,9.26
2019-03-16T11:29:48.626Z,9.26
2019-03-16T11:30:48.576Z,9.28
2019-03-16T11:31:48.546Z,9.23
2019-03-16T11:32:48.545Z,9.22
2019-03-16T11:33:48.664Z,9.16
2019-03-16T11:34:49.044Z,9.06
2019-03-16T11:35:48.432Z,9.11
2019-03-16T11:36:48.392Z,9.00
2019-03-16T11:37:48.396Z,8.92
2019-03-16T11:38:49.040Z,8.95
2019-03-16T11:39:49.041Z,8.88
2019-03-16T11:40:48.277Z,8.89
2019-03-16T11:41:49.089Z,8.73
2019-03-16T11:42:48.581Z,8.79
2019-03-16T11:43:48.203Z,8.71
2019-03-16T11:44:48.158Z,8.56
2019-03-16T11:45:48.128Z,8.61
2019-03-16T11:46:48.103Z,8.70
2019-03-16T11:47:48.093Z,8.69
2019-03-16T11:48:48.039Z,8.70
2019-03-16T11:49:48.013Z,8.78
2019-03-16T11:50:48.964Z,8.69
2019-03-16T11:51:47.952Z,8.63
2019-03-16T11:52:47.951Z,8.53
2019-03-16T11:53:47.904Z,8.67
2019-03-16T11:54:47.862Z,8.64
2019-03-16T11:55:47.838Z,8.51
2019-03-16T11:56:47.808Z,8.56
2019-03-16T11:57:47.769Z,8.56
2019-03-16T11:58:47.771Z,8.67
2019-03-16T11:59:47.713Z,8.61
2019-03-16T12:00:47.679Z,8.55
2019-03-16T12:01:47.669Z,8.53
2019-03-16T12:02:47.618Z,8.46
2019-03-16T12:03:47.611Z,8.49
2019-03-16T12:04:47.564Z,8.31
2019-03-16T12:05:47.535Z,8.28
2019-03-16T12:06:47.495Z,8.44
2019-03-16T12:07:47.480Z,8.46
2019-03-16T12:08:47.484Z,8.46
2019-03-16T12:09:47.409Z,8.42
2019-03-16T12:10:47.378Z,8.55
2019-03-16T12:11:47.347Z,8.48
2019-03-16T12:12:47.321Z,8.58
2019-03-16T12:13:47.310Z,8.67
2019-03-16T12:14:47.256Z,8.61
2019-03-16T12:15:47.275Z,8.52
2019-03-16T12:16:47.199Z,8.58
2019-03-16T12:17:47.172Z,8.55
2019-03-16T12:18:47.164Z,8.66
2019-03-16T12:19:47.108Z,8.58
2019-03-16T12:20:47.075Z,8.61
2019-03-16T12:21:47.048Z,8.55
2019-03-16T12:22:47.015Z,8.51
2019-03-16T12:23:47.015Z,8.44
2019-03-16T12:24:46.957Z,8.36
2019-03-16T12:25:46.925Z,8.31
2019-03-16T12:26:46.893Z,8.19
2019-03-16T12:27:46.863Z,8.20
2019-03-16T12:28:46.866Z,8.18
2019-03-16T12:29:46.801Z,8.28
2019-03-16T12:30:46.775Z,8.24
2019-03-16T12:31:46.735Z,8.33
2019-03-16T12:32:46.713Z,8.33
2019-03-16T12:33:46.706Z,8.31
2019-03-16T12:34:46.668Z,8.23
2019-03-16T12:35:46.620Z,8.15
2019-03-16T12:36:46.598Z,8.16
2019-03-16T12:37:46.559Z,8.18
2019-03-16T12:38:46.553Z,8.24
2019-03-16T12:39:46.500Z,8.03
2019-03-16T12:40:46.465Z,8.15
2019-03-16T12:41:46.436Z,8.09
2019-03-16T12:42:46.489Z,8.00
2019-03-16T12:43:46.412Z,8.01
2019-03-16T12:44:46.348Z,8.01
2019-03-16T12:45:46.315Z,7.83
2019-03-16T12:46:46.283Z,7.90
2019-03-16T12:47:46.259Z,8.08
2019-03-16T12:48:46.246Z,8.09
2019-03-16T12:49:46.205Z,8.08
2019-03-16T12:50:46.165Z,8.10
2019-03-16T12:51:46.138Z,8.03
2019-03-16T12:52:46.107Z,8.09
2019-03-16T12:53:46.096Z,8.00
2019-03-16T12:54:46.064Z,8.01
2019-03-16T12:55:46.016Z,7.97
2019-03-16T12:56:45.981Z,7.98
2019-03-16T12:57:48.197Z,8.00
2019-03-16T12:58:45.951Z,8.05
2019-03-16T12:59:47.103Z,8.00
2019-03-16T13:00:45.852Z,7.98
2019-03-16T13:01:45.823Z,7.94
2019-03-16T13:02:45.792Z,7.88
2019-03-16T13:03:45.787Z,7.91
2019-03-16T13:04:45.732Z,7.75
2019-03-16T13:05:45.725Z,7.77
2019-03-16T13:06:45.671Z,7.63
2019-03-16T13:07:45.642Z,7.63
2019-03-16T13:08:45.634Z,7.69
2019-03-16T13:09:45.580Z,7.70
2019-03-16T13:10:45.552Z,7.67
2019-03-16T13:11:45.522Z,7.70
2019-03-16T13:12:45.489Z,7.70
2019-03-16T13:13:45.482Z,7.82